createdAt,value
2022-07-31T00:00:21.293Z,60.43
2022-07-31T00:02:48.271Z,60.36
2022-07-31T00:05:14.995Z,60.46
2022-07-31T00:07:41.763Z,60.48
2022-07-31T00:10:09.284Z,60.68
2022-07-31T00:12:36.031Z,60.55
2022-07-31T00:15:08.334Z,60.17
2022-07-31T00:17:35.261Z,59.81
2022-07-31T00:20:02.310Z,59.82
2022-07-31T00:22:28.967Z,59.66
2022-07-31T00:24:56.971Z,59.79
2022-07-31T00:27:23.875Z,59.72
2022-07-31T00:29:50.956Z,59.70
2022-07-31T00:32:17.995Z,59.55
2022-07-31T00:34:44.745Z,59.42
2022-07-31T00:37:11.417Z,59.28
2022-07-31T00:39:38.417Z,59.13
2022-07-31T00:42:05.948Z,59.22
2022-07-31T00:44:32.697Z,59.25
2022-07-31T00:47:01.729Z,59.13
2022-07-31T00:49:37.707Z,59.07
2022-07-31T00:52:05.713Z,59.18
2022-07-31T00:54:33.407Z,59.12
2022-07-31T00:57:00.768Z,59.06
2022-07-31T00:59:29.116Z,59.22
2022-07-31T01:01:57.362Z,58.98
2022-07-31T01:04:26.202Z,58.96
2022-07-31T01:06:54.851Z,59.27
2022-07-31T01:09:22.086Z,59.49
2022-07-31T01:12:00.630Z,59.91
2022-07-31T01:14:31.262Z,60.01
2022-07-31T01:17:00.161Z,60.65
2022-07-31T01:19:43.151Z,60.73
2022-07-31T01:22:48.131Z,60.62
2022-07-31T01:25:34.515Z,60.60
2022-07-31T01:28:12.049Z,61.02
2022-07-31T01:31:24.212Z,61.44
2022-07-31T01:33:53.708Z,61.66
2022-07-31T01:36:24.745Z,61.90
2022-07-31T01:38:55.884Z,61.91
2022-07-31T01:41:30.354Z,62.21
2022-07-31T01:43:59.027Z,62.12
2022-07-31T01:46:28.890Z,62.28
2022-07-31T01:48:57.326Z,62.55
2022-07-31T01:51:26.378Z,62.43
2022-07-31T01:53:54.394Z,62.50
2022-07-31T01:56:22.164Z,62.48
2022-07-31T01:58:49.985Z,62.74
2022-07-31T02:01:19.209Z,62.67
2022-07-31T02:03:51.445Z,62.57
2022-07-31T02:06:24.725Z,62.27
2022-07-31T02:08:54.454Z,62.13
2022-07-31T02:11:22.000Z,62.15
2022-07-31T02:13:49.877Z,62.14
2022-07-31T02:16:19.433Z,62.08
2022-07-31T02:18:49.553Z,62.06
2022-07-31T02:21:18.904Z,62.01
2022-07-31T02:23:45.692Z,62.09
2022-07-31T02:26:15.583Z,61.63
2022-07-31T02:28:44.562Z,61.63
2022-07-31T02:31:13.698Z,61.54
2022-07-31T02:33:45.754Z,61.22
2022-07-31T02:36:14.395Z,61.18
2022-07-31T02:38:43.811Z,61.05
2022-07-31T02:41:13.032Z,61.15
2022-07-31T02:43:40.790Z,61.13
2022-07-31T02:46:11.273Z,60.41
2022-07-31T02:48:39.527Z,60.60
2022-07-31T02:51:08.541Z,60.60
2022-07-31T02:53:37.868Z,60.62
2022-07-31T02:56:09.430Z,60.21
2022-07-31T02:58:43.471Z,59.72
2022-07-31T03:01:11.698Z,59.27
2022-07-31T03:03:38.885Z,59.02
2022-07-31T03:06:05.654Z,59.03
2022-07-31T03:08:32.457Z,58.55
2022-07-31T03:11:02.529Z,58.59
2022-07-31T03:13:31.975Z,57.87
2022-07-31T03:15:59.854Z,57.79
2022-07-31T03:18:29.461Z,57.17
2022-07-31T03:20:56.859Z,56.74
2022-07-31T03:23:27.359Z,56.70
2022-07-31T03:25:54.673Z,56.44
2022-07-31T03:28:22.050Z,56.01
2022-07-31T03:30:56.092Z,55.70
2022-07-31T03:33:23.966Z,55.45
2022-07-31T03:35:51.415Z,55.29
2022-07-31T03:38:38.487Z,54.78
2022-07-31T03:41:05.480Z,54.42
2022-07-31T03:43:44.183Z,53.28
2022-07-31T03:46:20.197Z,52.26
2022-07-31T03:48:47.917Z,51.74
2022-07-31T03:51:15.877Z,50.72
2022-07-31T03:53:43.552Z,49.72
2022-07-31T03:56:13.038Z,48.40
2022-07-31T03:58:40.322Z,47.62
2022-07-31T04:01:10.659Z,46.55
2022-07-31T04:03:39.610Z,45.26
2022-07-31T04:06:07.729Z,44.04
2022-07-31T04:08:34.505Z,43.26
2022-07-31T04:11:01.485Z,42.80
2022-07-31T04:13:29.311Z,42.55
2022-07-31T04:15:56.349Z,42.04
2022-07-31T04:18:23.282Z,42.53
2022-07-31T04:20:50.153Z,42.96
2022-07-31T04:23:16.958Z,43.51
2022-07-31T04:25:45.939Z,44.15
2022-07-31T04:28:13.750Z,43.95
2022-07-31T04:30:40.917Z,44.25
2022-07-31T04:33:07.909Z,45.16
2022-07-31T04:35:35.934Z,45.82
2022-07-31T04:38:02.808Z,46.48
2022-07-31T04:40:30.829Z,47.02
2022-07-31T04:42:57.687Z,47.89
2022-07-31T04:45:24.410Z,48.11
2022-07-31T04:47:52.698Z,48.51
2022-07-31T04:50:19.497Z,48.64
2022-07-31T04:52:54.821Z,49.10
2022-07-31T04:55:22.833Z,48.97
2022-07-31T04:57:49.587Z,49.27
2022-07-31T05:00:16.643Z,49.37
2022-07-31T05:02:43.751Z,49.36
2022-07-31T05:05:10.411Z,49.61
2022-07-31T05:07:37.981Z,49.33
2022-07-31T05:10:05.897Z,49.40
2022-07-31T05:12:33.011Z,49.25
2022-07-31T05:14:59.991Z,49.07
2022-07-31T05:17:27.076Z,48.93
2022-07-31T05:19:59.363Z,48.95
2022-07-31T05:22:27.163Z,48.53
2022-07-31T05:24:54.607Z,48.82
2022-07-31T05:27:21.768Z,48.78
2022-07-31T05:29:48.781Z,48.46
2022-07-31T05:32:16.144Z,48.89
2022-07-31T05:34:45.021Z,48.68
2022-07-31T05:37:12.035Z,48.76
2022-07-31T05:39:39.728Z,48.19
2022-07-31T05:42:24.436Z,48.18
2022-07-31T05:44:51.499Z,47.56
2022-07-31T05:47:18.493Z,47.88
2022-07-31T05:49:45.143Z,47.95
2022-07-31T05:52:12.050Z,48.30
2022-07-31T05:54:38.973Z,48.21
2022-07-31T05:57:07.664Z,48.21
2022-07-31T05:59:35.528Z,48.30
2022-07-31T06:02:03.505Z,47.23
2022-07-31T06:04:32.495Z,47.61
2022-07-31T06:06:59.372Z,47.35
2022-07-31T06:09:26.574Z,46.77
2022-07-31T06:11:53.609Z,46.82
2022-07-31T06:14:20.359Z,46.73
2022-07-31T06:16:50.232Z,46.39
2022-07-31T06:19:18.565Z,46.01
2022-07-31T06:21:51.616Z,46.32
2022-07-31T06:24:21.749Z,46.16
2022-07-31T06:26:48.904Z,45.57
2022-07-31T06:29:15.767Z,45.48
2022-07-31T06:31:42.758Z,45.36
2022-07-31T06:34:09.389Z,44.94
2022-07-31T06:36:37.219Z,45.33
2022-07-31T06:39:06.224Z,45.34
2022-07-31T06:41:47.481Z,45.63
2022-07-31T06:44:28.181Z,45.83
2022-07-31T06:47:02.431Z,45.91
2022-07-31T06:49:32.267Z,45.83
2022-07-31T06:51:59.103Z,45.24
2022-07-31T06:54:26.590Z,44.98
2022-07-31T06:56:54.645Z,45.15
2022-07-31T06:59:39.875Z,45.45
2022-07-31T07:02:08.690Z,45.15
2022-07-31T07:05:04.507Z,45.22
2022-07-31T07:07:22.734Z,45.07
2022-07-31T07:09:51.369Z,44.56
2022-07-31T07:12:19.399Z,44.81
2022-07-31T07:14:49.372Z,44.19
2022-07-31T07:17:16.747Z,43.86
2022-07-31T07:19:43.534Z,44.34
2022-07-31T07:22:10.587Z,43.96
2022-07-31T07:24:37.830Z,44.17
2022-07-31T07:27:05.000Z,43.61
2022-07-31T07:29:32.163Z,43.55
2022-07-31T07:31:59.957Z,42.65
2022-07-31T07:34:28.013Z,42.57
2022-07-31T07:36:55.448Z,42.53
2022-07-31T07:39:23.062Z,42.20
2022-07-31T07:41:50.339Z,41.74
2022-07-31T07:44:17.363Z,41.84
2022-07-31T07:46:44.221Z,40.89
2022-07-31T07:49:11.235Z,40.51
2022-07-31T07:51:38.549Z,41.58
2022-07-31T07:54:26.431Z,41.08
2022-07-31T07:56:57.603Z,40.52
2022-07-31T07:59:26.763Z,40.41
2022-07-31T08:01:56.678Z,40.54
2022-07-31T08:04:24.096Z,40.59
2022-07-31T08:06:50.851Z,40.65
2022-07-31T08:09:20.655Z,40.78
2022-07-31T08:11:50.108Z,40.42
2022-07-31T08:14:18.122Z,39.83
2022-07-31T08:16:48.365Z,39.45
2022-07-31T08:19:15.449Z,39.97
2022-07-31T08:21:42.141Z,40.41
2022-07-31T08:24:09.009Z,40.15
2022-07-31T08:26:54.485Z,38.22
2022-07-31T08:29:27.533Z,37.94
2022-07-31T08:31:58.203Z,37.56
2022-07-31T08:34:31.981Z,37.24
2022-07-31T08:37:00.071Z,37.02
2022-07-31T08:39:48.852Z,36.85
2022-07-31T08:42:16.337Z,36.26
2022-07-31T08:44:44.713Z,36.15
2022-07-31T08:47:16.090Z,36.01
2022-07-31T08:49:46.638Z,36.23
2022-07-31T08:52:24.928Z,36.62
2022-07-31T08:54:54.852Z,36.43
2022-07-31T08:57:22.919Z,36.30
2022-07-31T08:59:52.479Z,36.12
2022-07-31T09:02:19.603Z,35.98
2022-07-31T09:04:52.780Z,35.86
2022-07-31T09:07:20.729Z,36.10
2022-07-31T09:09:51.855Z,36.57
2022-07-31T09:12:32.318Z,35.92
2022-07-31T09:15:01.799Z,36.09
2022-07-31T09:17:34.325Z,35.55
2022-07-31T09:20:01.868Z,35.81
2022-07-31T09:22:30.570Z,35.22
2022-07-31T09:25:12.207Z,34.85
2022-07-31T09:27:40.378Z,35.47
2022-07-31T09:30:08.614Z,34.64
2022-07-31T09:32:50.630Z,34.29
2022-07-31T09:35:18.078Z,34.31
2022-07-31T09:37:48.826Z,34.17
2022-07-31T09:40:21.116Z,34.05
2022-07-31T09:42:55.340Z,33.81
2022-07-31T09:45:24.278Z,33.52
2022-07-31T09:48:08.599Z,33.72
2022-07-31T09:50:52.808Z,33.99
2022-07-31T09:53:19.956Z,33.79
2022-07-31T09:55:55.530Z,33.67
2022-07-31T09:58:24.553Z,33.98
2022-07-31T10:00:53.247Z,34.21
2022-07-31T10:03:20.816Z,33.71
2022-07-31T10:05:48.989Z,33.78
2022-07-31T10:08:17.369Z,33.75
2022-07-31T10:10:46.632Z,34.31
2022-07-31T10:13:16.371Z,34.20
2022-07-31T10:15:46.945Z,34.19
2022-07-31T10:18:35.628Z,34.13
2022-07-31T10:21:06.769Z,34.23
2022-07-31T10:23:40.307Z,34.33
2022-07-31T10:26:07.730Z,33.80
2022-07-31T10:28:37.848Z,34.27
2022-07-31T10:31:06.157Z,34.37
2022-07-31T10:33:49.271Z,34.57
2022-07-31T10:36:22.789Z,34.28
2022-07-31T10:39:02.931Z,33.81
2022-07-31T10:41:57.726Z,33.72
2022-07-31T10:44:27.487Z,33.74
2022-07-31T10:46:56.223Z,33.31
2022-07-31T10:49:44.665Z,33.52
2022-07-31T10:52:12.780Z,34.11
2022-07-31T10:54:44.968Z,33.93
2022-07-31T10:57:30.578Z,34.14
2022-07-31T11:00:17.587Z,33.99
2022-07-31T11:02:46.499Z,33.96
2022-07-31T11:05:16.147Z,34.54
2022-07-31T11:07:46.451Z,34.42
2022-07-31T11:10:16.588Z,34.36
2022-07-31T11:13:12.980Z,34.52
2022-07-31T11:15:40.121Z,34.89
2022-07-31T11:18:22.699Z,34.81
2022-07-31T11:21:22.803Z,34.72
2022-07-31T11:23:56.063Z,34.95
2022-07-31T11:26:32.734Z,35.13
2022-07-31T11:29:59.630Z,35.04
2022-07-31T11:31:50.000Z,35.16
2022-07-31T11:34:17.040Z,35.49
2022-07-31T11:36:48.014Z,35.53
2022-07-31T11:39:17.866Z,35.85
2022-07-31T11:41:45.726Z,35.83
2022-07-31T11:44:12.548Z,35.42
2022-07-31T11:46:39.491Z,34.73
2022-07-31T11:49:06.583Z,34.69
2022-07-31T11:51:33.405Z,34.11
2022-07-31T11:54:00.426Z,33.92
2022-07-31T11:56:27.843Z,33.97
2022-07-31T11:58:57.446Z,34.05
2022-07-31T12:01:29.638Z,33.91
2022-07-31T12:04:08.387Z,34.08
2022-07-31T12:06:37.302Z,33.90
2022-07-31T12:09:04.733Z,34.43
2022-07-31T12:11:31.705Z,34.30
2022-07-31T12:13:59.503Z,34.40
2022-07-31T12:16:26.753Z,34.21
2022-07-31T12:18:56.467Z,34.32
2022-07-31T12:21:34.351Z,34.81
2022-07-31T12:24:02.655Z,34.96
2022-07-31T12:26:31.866Z,34.84
2022-07-31T12:29:02.925Z,34.38
2022-07-31T12:31:32.529Z,34.83
2022-07-31T12:33:59.443Z,34.82
2022-07-31T12:36:26.102Z,35.01
2022-07-31T12:39:05.037Z,35.22
2022-07-31T12:41:42.220Z,35.23
2022-07-31T12:44:14.679Z,34.62
2022-07-31T12:46:41.720Z,34.79
2022-07-31T12:49:08.942Z,34.75
2022-07-31T12:51:45.605Z,35.10
2022-07-31T12:54:17.894Z,34.80
2022-07-31T12:56:46.531Z,34.73
2022-07-31T12:59:13.714Z,35.07
2022-07-31T13:01:40.520Z,34.87
2022-07-31T13:04:18.206Z,34.49
2022-07-31T13:06:48.585Z,34.76
2022-07-31T13:09:16.119Z,34.72
2022-07-31T13:11:46.373Z,34.89
2022-07-31T13:14:19.299Z,33.76
2022-07-31T13:16:46.958Z,33.81
2022-07-31T13:19:14.281Z,33.66
2022-07-31T13:21:48.953Z,33.69
2022-07-31T13:24:19.178Z,33.97
2022-07-31T13:26:47.652Z,34.08
2022-07-31T13:29:14.575Z,34.08
2022-07-31T13:31:41.809Z,34.14
2022-07-31T13:34:08.958Z,34.15
2022-07-31T13:36:38.971Z,34.09
2022-07-31T13:39:11.205Z,33.96
2022-07-31T13:41:39.523Z,34.04
2022-07-31T13:44:07.230Z,33.93
2022-07-31T13:46:34.096Z,33.69
2022-07-31T13:49:02.450Z,34.21
2022-07-31T13:51:29.766Z,33.63
2022-07-31T13:53:56.811Z,34.16
2022-07-31T13:56:38.913Z,33.86
2022-07-31T13:59:11.843Z,34.17
2022-07-31T14:02:04.203Z,34.31
2022-07-31T14:04:31.292Z,33.72
2022-07-31T14:07:01.352Z,34.00
2022-07-31T14:09:34.241Z,34.06
2022-07-31T14:12:04.656Z,34.21
2022-07-31T14:14:32.503Z,34.13
2022-07-31T14:16:59.210Z,34.16
2022-07-31T14:19:25.999Z,34.23
2022-07-31T14:21:56.854Z,34.12
2022-07-31T14:24:25.578Z,34.20
2022-07-31T14:26:52.581Z,34.79
2022-07-31T14:29:19.667Z,34.43
2022-07-31T14:31:46.496Z,34.59
2022-07-31T14:34:13.397Z,34.69
2022-07-31T14:36:40.310Z,34.82
2022-07-31T14:39:07.014Z,34.72
2022-07-31T14:41:33.734Z,34.31
2022-07-31T14:44:00.726Z,34.29
2022-07-31T14:46:27.473Z,34.89
2022-07-31T14:48:54.251Z,35.00
2022-07-31T14:51:21.381Z,34.85
2022-07-31T14:53:48.096Z,35.23
2022-07-31T14:56:23.418Z,35.32
2022-07-31T14:59:01.577Z,34.94
2022-07-31T15:01:30.616Z,35.20
2022-07-31T15:03:58.422Z,35.60
2022-07-31T15:06:39.798Z,35.55
2022-07-31T15:09:16.349Z,35.30
2022-07-31T15:11:59.593Z,35.64
2022-07-31T15:14:27.639Z,35.87
2022-07-31T15:16:54.635Z,36.42
2022-07-31T15:19:21.272Z,36.78
2022-07-31T15:22:10.748Z,36.97
2022-07-31T15:24:35.046Z,36.26
2022-07-31T15:27:02.199Z,36.51
2022-07-31T15:30:00.650Z,36.46
2022-07-31T15:32:16.046Z,36.60
2022-07-31T15:34:42.807Z,36.75
2022-07-31T15:37:09.680Z,37.19
2022-07-31T15:39:37.239Z,37.39
2022-07-31T15:42:04.262Z,37.39
2022-07-31T15:44:31.569Z,37.59
2022-07-31T15:46:58.591Z,37.72
2022-07-31T15:49:25.341Z,37.55
2022-07-31T15:51:52.174Z,36.94
2022-07-31T15:54:19.113Z,36.95
2022-07-31T15:56:47.126Z,37.28
2022-07-31T15:59:13.933Z,37.65
2022-07-31T16:01:41.016Z,38.11
2022-07-31T16:04:16.339Z,38.03
2022-07-31T16:06:48.859Z,38.04
2022-07-31T16:09:16.342Z,38.04
2022-07-31T16:12:05.503Z,38.21
2022-07-31T16:14:31.057Z,38.25
2022-07-31T16:16:57.704Z,38.06
2022-07-31T16:19:27.511Z,38.45
2022-07-31T16:21:58.064Z,38.48
2022-07-31T16:24:24.797Z,38.65
2022-07-31T16:26:51.723Z,39.02
2022-07-31T16:29:57.742Z,39.28
2022-07-31T16:32:05.795Z,39.25
2022-07-31T16:34:32.778Z,39.17
2022-07-31T16:36:59.535Z,39.46
2022-07-31T16:39:26.303Z,39.71
2022-07-31T16:41:54.820Z,40.11
2022-07-31T16:44:22.020Z,40.18
2022-07-31T16:46:54.176Z,40.01
2022-07-31T16:49:35.356Z,39.81
2022-07-31T16:52:03.618Z,40.02
2022-07-31T16:54:30.684Z,40.17
2022-07-31T16:56:57.358Z,40.15
2022-07-31T16:59:24.075Z,40.22
2022-07-31T17:01:57.775Z,40.52
2022-07-31T17:04:27.817Z,40.80
2022-07-31T17:06:55.453Z,41.04
2022-07-31T17:09:22.879Z,41.12
2022-07-31T17:11:53.870Z,41.59
2022-07-31T17:14:22.017Z,41.62
2022-07-31T17:16:50.162Z,41.10
2022-07-31T17:19:41.326Z,41.86
2022-07-31T17:22:07.258Z,42.20
2022-07-31T17:24:36.981Z,42.31
2022-07-31T17:27:08.514Z,42.17
2022-07-31T17:29:37.521Z,42.44
2022-07-31T17:32:04.538Z,42.42
2022-07-31T17:34:31.253Z,42.57
2022-07-31T17:36:58.441Z,42.82
2022-07-31T17:39:30.039Z,42.70
2022-07-31T17:41:57.805Z,42.68
2022-07-31T17:44:24.811Z,42.47
2022-07-31T17:46:52.390Z,42.39
2022-07-31T17:49:19.737Z,42.70
2022-07-31T17:51:58.672Z,42.77
2022-07-31T17:54:35.097Z,42.95
2022-07-31T17:57:02.658Z,43.14
2022-07-31T17:59:29.627Z,43.40
2022-07-31T18:02:00.462Z,43.63
2022-07-31T18:04:28.683Z,43.77
2022-07-31T18:06:55.757Z,43.07
2022-07-31T18:09:23.805Z,43.92
2022-07-31T18:11:52.345Z,44.47
2022-07-31T18:14:19.622Z,44.19
2022-07-31T18:16:47.252Z,44.24
2022-07-31T18:19:15.002Z,44.49
2022-07-31T18:21:42.029Z,44.71
2022-07-31T18:24:08.904Z,44.54
2022-07-31T18:26:37.388Z,44.63
2022-07-31T18:29:05.073Z,44.78
2022-07-31T18:31:35.151Z,44.69
2022-07-31T18:34:06.928Z,44.82
2022-07-31T18:36:35.006Z,45.10
2022-07-31T18:39:04.476Z,45.06
2022-07-31T18:41:33.967Z,45.24
2022-07-31T18:44:01.066Z,45.37
2022-07-31T18:46:28.097Z,45.69
2022-07-31T18:48:56.475Z,45.77
2022-07-31T18:51:28.785Z,46.08
2022-07-31T18:53:56.597Z,45.86
2022-07-31T18:56:24.497Z,45.99
2022-07-31T18:58:52.185Z,46.21
2022-07-31T19:01:19.630Z,46.26
2022-07-31T19:03:46.691Z,46.35
2022-07-31T19:06:13.736Z,46.79
2022-07-31T19:08:40.827Z,46.63
2022-07-31T19:11:07.526Z,46.80
2022-07-31T19:13:34.931Z,46.95
2022-07-31T19:16:02.127Z,47.08
2022-07-31T19:18:29.140Z,47.31
2022-07-31T19:21:18.971Z,47.10
2022-07-31T19:23:46.581Z,47.28
2022-07-31T19:26:13.589Z,47.48
2022-07-31T19:28:43.110Z,47.64
2022-07-31T19:31:11.638Z,47.78
2022-07-31T19:33:38.450Z,47.74
2022-07-31T19:36:05.698Z,48.00
2022-07-31T19:38:35.727Z,48.19
2022-07-31T19:41:03.167Z,48.24
2022-07-31T19:43:30.749Z,48.33
2022-07-31T19:46:10.693Z,48.53
2022-07-31T19:48:41.325Z,48.58
2022-07-31T19:51:09.584Z,48.89
2022-07-31T19:53:36.389Z,48.83
2022-07-31T19:56:05.818Z,49.08
2022-07-31T19:58:34.770Z,49.06
2022-07-31T20:01:02.475Z,49.30
2022-07-31T20:03:29.674Z,49.53
2022-07-31T20:05:57.309Z,49.49
2022-07-31T20:08:24.082Z,49.63
2022-07-31T20:10:51.327Z,49.75
2022-07-31T20:13:19.141Z,49.77
2022-07-31T20:15:51.578Z,50.04
2022-07-31T20:18:27.310Z,50.22
2022-07-31T20:21:09.426Z,50.37
2022-07-31T20:23:38.996Z,49.98
2022-07-31T20:26:07.347Z,50.51
2022-07-31T20:28:34.610Z,50.59
2022-07-31T20:31:01.954Z,50.77
2022-07-31T20:33:28.740Z,50.91
2022-07-31T20:35:55.478Z,51.12
2022-07-31T20:38:23.827Z,51.23
2022-07-31T20:40:55.333Z,51.36
2022-07-31T20:43:24.320Z,51.39
2022-07-31T20:45:51.720Z,51.68
2022-07-31T20:48:18.520Z,51.82
2022-07-31T20:50:48.091Z,51.97
2022-07-31T20:53:16.275Z,52.23
2022-07-31T20:55:49.331Z,52.27
2022-07-31T20:58:18.252Z,52.38
2022-07-31T21:00:45.505Z,52.33
2022-07-31T21:03:12.872Z,52.50
2022-07-31T21:05:40.045Z,52.65
2022-07-31T21:08:06.830Z,52.83
2022-07-31T21:10:34.112Z,53.05
2022-07-31T21:13:01.059Z,53.06
2022-07-31T21:15:41.938Z,53.39
2022-07-31T21:18:13.086Z,53.21
2022-07-31T21:20:52.246Z,53.32
2022-07-31T21:23:24.536Z,53.34
2022-07-31T21:25:56.728Z,53.39
2022-07-31T21:28:26.369Z,53.32
2022-07-31T21:30:55.889Z,53.73
2022-07-31T21:33:24.643Z,53.62
2022-07-31T21:35:52.132Z,54.15
2022-07-31T21:38:19.099Z,54.04
2022-07-31T21:40:47.498Z,54.56
2022-07-31T21:43:14.727Z,54.32
2022-07-31T21:45:54.858Z,54.83
2022-07-31T21:48:26.925Z,54.77
2022-07-31T21:50:54.885Z,54.68
2022-07-31T21:53:22.227Z,55.04
2022-07-31T21:55:49.386Z,55.10
2022-07-31T21:58:17.394Z,55.08
2022-07-31T22:00:44.925Z,55.04
2022-07-31T22:03:12.048Z,56.06
2022-07-31T22:05:57.471Z,56.36
2022-07-31T22:08:24.717Z,56.98
2022-07-31T22:10:52.215Z,57.32
2022-07-31T22:13:19.649Z,57.86
2022-07-31T22:15:58.778Z,58.19
2022-07-31T22:18:29.604Z,58.46
2022-07-31T22:20:57.433Z,58.35
2022-07-31T22:23:26.125Z,58.78
2022-07-31T22:25:53.114Z,58.74
2022-07-31T22:28:22.120Z,59.20
2022-07-31T22:30:49.288Z,59.73
2022-07-31T22:33:16.222Z,59.55
2022-07-31T22:35:43.846Z,59.51
2022-07-31T22:38:13.445Z,60.14
2022-07-31T22:40:40.495Z,60.20
2022-07-31T22:44:10.668Z,60.31
2022-07-31T22:46:00.386Z,60.32
2022-07-31T22:48:27.916Z,60.29
2022-07-31T22:50:55.475Z,60.53
2022-07-31T22:53:22.326Z,60.76
2022-07-31T22:55:49.424Z,60.36
2022-07-31T22:58:16.125Z,59.65
2022-07-31T23:00:43.197Z,59.46
2022-07-31T23:03:10.132Z,59.35
2022-07-31T23:06:28.165Z,58.71
2022-07-31T23:08:23.985Z,58.76
2022-07-31T23:10:50.854Z,58.57
2022-07-31T23:13:17.600Z,58.39
2022-07-31T23:15:44.851Z,58.57
2022-07-31T23:18:11.934Z,58.44
2022-07-31T23:20:38.721Z,58.46
2022-07-31T23:23:05.723Z,58.64
2022-07-31T23:25:32.732Z,58.97
2022-07-31T23:27:59.517Z,58.95
2022-07-31T23:30:27.523Z,58.89
2022-07-31T23:32:55.410Z,59.18
2022-07-31T23:35:22.174Z,58.84
2022-07-31T23:37:49.205Z,59.05
2022-07-31T23:40:15.956Z,59.04
2022-07-31T23:42:42.652Z,59.15
2022-07-31T23:45:15.434Z,59.33
2022-07-31T23:47:45.640Z,59.06
2022-07-31T23:50:15.270Z,59.10
2022-07-31T23:52:43.053Z,59.21
2022-07-31T23:55:10.096Z,59.16
2022-07-31T23:57:37.254Z,59.11
